Time;durP1;ratioP1;P1;durP2;ratioP2;P2;SDS_P1;SDS_P2;PMS_P1;PMS_P2;Temp;Humidity;BMP_temperature;BMP_pressure;BME280_temperature;BME280_humidity;BME280_pressure;Samples;Min_cycle;Max_cycle;Signal;HPM_P1;HPM_P2
2021/12/03 00:00:31;;;;;;;11.65;6.20;;;-0.80;99.90;;;;;;4988373;28;20049;-80
2021/12/03 00:02:57;;;;;;;10.48;5.78;;;0.10;99.90;;;;;;4993578;28;20132;-80
2021/12/03 00:05:23;;;;;;;11.65;5.82;;;0.10;99.90;;;;;;4996877;28;20428;-81
2021/12/03 00:07:50;;;;;;;17.15;6.82;;;0.00;99.90;;;;;;5006129;28;20061;-80
2021/12/03 00:10:22;;;;;;;11.70;6.80;;;-0.20;99.90;;;;;;4989653;28;20161;-80
2021/12/03 00:12:48;;;;;;;13.80;6.75;;;-0.70;99.90;;;;;;4992162;28;20250;-80
2021/12/03 00:15:14;;;;;;;11.82;6.18;;;-0.70;99.90;;;;;;4979742;28;20046;-80
2021/12/03 00:17:40;;;;;;;14.20;5.80;;;0.30;99.90;;;;;;4958929;28;20049;-80
2021/12/03 00:20:10;;;;;;;13.15;6.15;;;-0.70;99.90;;;;;;5005389;28;20042;-80
2021/12/03 00:22:36;;;;;;;12.65;5.95;;;-0.80;99.90;;;;;;5011596;28;20057;-81
2021/12/03 00:25:03;;;;;;;17.70;6.90;;;-0.40;99.90;;;;;;4979488;28;20046;-80
2021/12/03 00:27:29;;;;;;;11.60;5.40;;;-0.80;99.90;;;;;;4991689;28;20539;-80
2021/12/03 00:29:54;;;;;;;14.52;5.72;;;-0.80;99.90;;;;;;4991421;28;20065;-80
2021/12/03 00:32:20;;;;;;;16.10;6.05;;;-0.80;99.90;;;;;;4991251;28;20042;-80
2021/12/03 00:34:46;;;;;;;14.85;6.65;;;-0.90;99.90;;;;;;4975076;28;20069;-80
2021/12/03 00:37:11;;;;;;;11.07;5.97;;;-0.90;99.90;;;;;;4992575;28;20046;-80
2021/12/03 00:39:37;;;;;;;15.10;6.70;;;-0.80;99.90;;;;;;5009270;28;20434;-80
2021/12/03 00:42:04;;;;;;;12.05;6.43;;;-0.90;99.90;;;;;;4991906;28;20063;-80
2021/12/03 00:44:30;;;;;;;14.23;6.40;;;-0.80;99.90;;;;;;4991926;28;20046;-80
2021/12/03 00:46:58;;;;;;;12.75;6.80;;;-0.80;99.90;;;;;;4974049;28;20068;-80
2021/12/03 00:49:25;;;;;;;15.10;6.35;;;-0.20;99.90;;;;;;4995282;28;20050;-80
2021/12/03 00:51:51;;;;;;;14.05;7.30;;;-0.70;99.90;;;;;;4994747;28;20747;-80
2021/12/03 00:54:17;;;;;;;14.40;6.55;;;-0.70;99.90;;;;;;5009077;28;20081;-80
2021/12/03 00:56:43;;;;;;;12.50;5.70;;;-0.70;99.90;;;;;;4990412;28;20054;-80
2021/12/03 00:59:09;;;;;;;13.27;6.50;;;-0.80;99.90;;;;;;5000983;28;20117;-80
2021/12/03 01:01:35;;;;;;;11.55;6.15;;;-0.80;99.90;;;;;;4973100;28;20515;-80
2021/12/03 01:04:02;;;;;;;15.07;6.18;;;-0.20;99.90;;;;;;4991858;28;20056;-80
2021/12/03 01:06:27;;;;;;;;;;;-0.80;99.90;;;;;;4975616;28;20059;-80
2021/12/03 01:08:53;;;;;;;13.38;6.38;;;-0.40;99.90;;;;;;4991153;28;20518;-80
2021/12/03 01:11:21;;;;;;;13.95;6.55;;;-0.70;99.90;;;;;;4974954;28;20511;-80
2021/12/03 01:13:47;;;;;;;13.98;6.43;;;-0.70;99.90;;;;;;4973680;28;20081;-80
2021/12/03 01:16:15;;;;;;;12.18;6.07;;;-0.70;99.90;;;;;;4958604;28;20565;-80
2021/12/03 01:18:42;;;;;;;15.30;7.10;;;0.40;99.90;;;;;;5000249;28;20089;-80
2021/12/03 01:21:08;;;;;;;15.13;6.65;;;-0.70;99.90;;;;;;5010764;28;20058;-80
2021/12/03 01:23:34;;;;;;;14.23;6.70;;;-0.60;99.90;;;;;;4999699;28;20092;-80
2021/12/03 01:26:01;;;;;;;12.20;6.65;;;-0.70;99.90;;;;;;4974898;28;20090;-80
2021/12/03 01:28:27;;;;;;;;;;;0.10;99.90;;;;;;4991904;28;20050;-79
2021/12/03 01:30:57;;;;;;;12.68;6.90;;;-0.70;99.90;;;;;;4991896;28;19944;-80
2021/12/03 01:33:23;;;;;;;15.07;7.78;;;-0.60;99.90;;;;;;5010793;28;20046;-80
2021/12/03 01:35:48;;;;;;;17.48;8.27;;;-0.60;99.90;;;;;;4989859;28;20361;-80
2021/12/03 01:38:14;;;;;;;21.23;8.70;;;-0.60;99.90;;;;;;4991220;28;20045;-79
2021/12/03 01:40:41;;;;;;;25.45;9.38;;;-0.50;99.90;;;;;;5001441;28;20099;-80
2021/12/03 01:43:08;;;;;;;21.30;9.40;;;-0.50;99.90;;;;;;5010834;28;20046;-80
2021/12/03 01:45:38;;;;;;;20.13;9.40;;;-0.50;99.90;;;;;;4997551;28;20107;-80
2021/12/03 01:48:04;;;;;;;21.90;10.38;;;-0.30;99.90;;;;;;4989863;28;20058;-80
2021/12/03 01:50:36;;;;;;;19.75;11.05;;;-0.50;99.90;;;;;;4974302;28;20054;-80
2021/12/03 01:53:03;;;;;;;22.02;10.63;;;-0.50;99.90;;;;;;4990584;28;20054;-80
2021/12/03 01:55:29;;;;;;;23.83;11.70;;;-0.50;99.90;;;;;;4974845;28;20057;-80
2021/12/03 01:57:55;;;;;;;31.33;13.18;;;-0.10;99.90;;;;;;4982903;28;20145;-80
2021/12/03 02:00:40;;;;;;;25.65;12.57;;;-0.40;99.90;;;;;;5009636;28;20175;-80
2021/12/03 02:03:08;;;;;;;27.77;12.98;;;-0.40;99.90;;;;;;5006278;28;20492;-80
2021/12/03 02:05:36;;;;;;;26.83;13.98;;;-0.40;99.90;;;;;;4990768;28;20854;-80
2021/12/03 02:08:03;;;;;;;27.73;14.27;;;-0.30;99.90;;;;;;4989806;28;20058;-80
2021/12/03 02:10:28;;;;;;;28.80;14.98;;;-0.40;99.90;;;;;;4974575;28;20484;-80
2021/12/03 02:12:55;;;;;;;26.10;14.38;;;-0.40;99.90;;;;;;4974052;28;20057;-80
2021/12/03 02:15:21;;;;;;;34.85;14.63;;;-0.40;99.90;;;;;;4957717;28;20054;-80
2021/12/03 02:17:48;;;;;;;30.52;14.52;;;-0.40;99.90;;;;;;4973405;28;20050;-80
2021/12/03 02:20:16;;;;;;;32.28;15.15;;;-0.40;99.90;;;;;;4990637;28;20046;-80
2021/12/03 02:22:42;;;;;;;30.10;14.63;;;-0.20;99.90;;;;;;4990406;28;20053;-80
2021/12/03 02:25:11;;;;;;;31.33;14.75;;;-0.40;99.90;;;;;;4990289;28;20042;-80
2021/12/03 02:27:37;;;;;;;27.70;14.68;;;-0.40;99.90;;;;;;4997458;28;20727;-80
2021/12/03 02:30:05;;;;;;;34.50;15.63;;;-0.30;99.90;;;;;;4976160;28;20133;-80
2021/12/03 02:32:31;;;;;;;29.75;15.45;;;-0.30;99.90;;;;;;4993086;28;20065;-80
2021/12/03 02:34:57;;;;;;;27.55;14.98;;;-0.30;99.90;;;;;;4977127;28;20045;-80
2021/12/03 02:37:22;;;;;;;30.88;16.05;;;-0.30;99.90;;;;;;4992435;28;20407;-80
2021/12/03 02:39:48;;;;;;;26.58;14.80;;;-0.30;99.90;;;;;;4972549;28;20128;-80
2021/12/03 02:42:15;;;;;;;29.50;15.10;;;-0.30;99.90;;;;;;4993587;28;20045;-80
2021/12/03 02:44:40;;;;;;;31.52;14.80;;;-0.30;99.90;;;;;;5010188;28;20046;-80
2021/12/03 02:47:06;;;;;;;29.02;15.07;;;0.00;99.90;;;;;;5006990;28;20053;-79
2021/12/03 02:49:38;;;;;;;27.95;14.75;;;-0.20;99.90;;;;;;4993737;28;20077;-80
2021/12/03 02:52:04;;;;;;;33.78;15.43;;;-0.20;99.90;;;;;;4992763;28;20160;-79
2021/12/03 02:54:30;;;;;;;27.48;15.27;;;-0.20;99.90;;;;;;4975549;28;20046;-80
2021/12/03 02:56:56;;;;;;;30.15;16.38;;;-0.20;99.90;;;;;;4990516;28;20129;-80
2021/12/03 02:59:21;;;;;;;31.17;16.70;;;-0.20;99.90;;;;;;4975553;28;20061;-80
2021/12/03 03:01:47;;;;;;;27.50;15.55;;;0.20;99.90;;;;;;4991246;28;20136;-80
2021/12/03 03:04:13;;;;;;;32.70;15.27;;;0.80;99.90;;;;;;4993650;28;20045;-80
2021/12/03 03:06:38;;;;;;;31.13;15.48;;;-0.20;99.90;;;;;;4993154;28;20093;-79
2021/12/03 03:09:08;;;;;;;25.00;15.00;;;0.00;99.90;;;;;;4992996;28;20140;-80
2021/12/03 03:11:34;;;;;;;31.42;15.35;;;0.50;99.90;;;;;;5009338;28;20480;-80
2021/12/03 03:14:00;;;;;;;25.98;14.57;;;0.10;99.90;;;;;;4990201;28;20058;-80
2021/12/03 03:16:26;;;;;;;25.42;14.45;;;-0.20;99.90;;;;;;5004183;28;20073;-79
2021/12/03 03:18:52;;;;;;;26.85;14.63;;;-0.30;99.90;;;;;;4989686;28;20108;-80
2021/12/03 03:21:18;;;;;;;25.13;15.02;;;0.10;99.90;;;;;;4999243;28;20050;-79
2021/12/03 03:23:44;;;;;;;27.75;14.13;;;-0.30;99.90;;;;;;5009482;28;20073;-80
2021/12/03 03:26:10;;;;;;;;;;;-0.30;99.90;;;;;;5009451;28;20092;-79
2021/12/03 03:28:36;;;;;;;28.77;14.88;;;-0.30;99.90;;;;;;4990066;28;19972;-80
2021/12/03 03:31:02;;;;;;;;;;;-0.40;99.90;;;;;;4988158;28;20755;-80
2021/12/03 03:33:29;;;;;;;29.65;16.63;;;-0.30;99.90;;;;;;4990014;28;19926;-80
2021/12/03 03:35:55;;;;;;;31.20;15.80;;;-0.30;99.90;;;;;;4990000;28;20117;-80
2021/12/03 03:38:20;;;;;;;29.30;15.93;;;0.50;99.90;;;;;;4993939;28;20085;-79
2021/12/03 03:40:47;;;;;;;28.73;15.43;;;0.60;99.90;;;;;;4976584;28;20133;-80
2021/12/03 03:43:14;;;;;;;28.25;15.57;;;0.00;99.90;;;;;;4993859;28;20046;-80
2021/12/03 03:45:41;;;;;;;25.85;16.27;;;-0.30;99.90;;;;;;4999491;28;20390;-79
2021/12/03 03:48:07;;;;;;;27.45;15.48;;;-0.30;99.90;;;;;;4995697;28;20124;-80
2021/12/03 03:50:33;;;;;;;27.00;15.77;;;0.70;99.90;;;;;;4999474;28;20590;-79
2021/12/03 03:52:59;;;;;;;26.58;15.60;;;-0.30;99.90;;;;;;4993001;28;20065;-80
2021/12/03 03:55:25;;;;;;;;;;;0.10;99.90;;;;;;4977562;28;20061;-79
2021/12/03 03:57:54;;;;;;;26.55;15.75;;;0.40;99.90;;;;;;4992758;28;19934;-80
2021/12/03 04:00:24;;;;;;;30.27;14.68;;;-0.40;99.90;;;;;;4992181;28;20150;-80
2021/12/03 04:02:50;;;;;;;28.58;16.08;;;-0.40;99.90;;;;;;4991814;28;20089;-80
2021/12/03 04:05:16;;;;;;;29.25;17.15;;;-0.30;99.90;;;;;;4978101;28;20074;-79
2021/12/03 04:07:42;;;;;;;27.23;16.88;;;-0.40;99.90;;;;;;4992788;28;20050;-79
2021/12/03 04:10:09;;;;;;;26.92;16.02;;;-0.40;99.90;;;;;;4991982;28;20046;-79
2021/12/03 04:12:35;;;;;;;29.30;16.38;;;-0.40;99.90;;;;;;4993030;28;20466;-80
2021/12/03 04:15:02;;;;;;;29.65;16.15;;;-0.40;99.90;;;;;;4975083;28;20042;-79
2021/12/03 04:17:28;;;;;;;31.20;17.33;;;-0.40;99.90;;;;;;4960107;28;20054;-80
2021/12/03 04:19:54;;;;;;;31.00;18.60;;;-0.40;99.90;;;;;;4993806;28;20048;-79
2021/12/03 04:22:23;;;;;;;28.20;17.90;;;0.20;99.90;;;;;;4996381;28;20061;-80
2021/12/03 04:24:51;;;;;;;32.97;17.95;;;-0.40;99.90;;;;;;5011581;28;20149;-79
2021/12/03 04:27:18;;;;;;;32.38;18.05;;;-0.40;99.90;;;;;;5012309;28;20050;-79
2021/12/03 04:29:44;;;;;;;32.42;17.55;;;-0.40;99.90;;;;;;5004229;28;20064;-80
2021/12/03 04:32:09;;;;;;;31.75;17.92;;;-0.40;99.90;;;;;;5009993;28;20073;-80
2021/12/03 04:34:35;;;;;;;31.23;17.50;;;-0.40;99.90;;;;;;5012219;28;20081;-79
2021/12/03 04:37:02;;;;;;;27.90;17.65;;;-0.40;99.90;;;;;;5011781;28;20053;-80
2021/12/03 04:39:28;;;;;;;32.65;18.73;;;-0.40;99.90;;;;;;4979897;28;20081;-79
2021/12/03 04:41:53;;;;;;;30.05;18.48;;;-0.40;99.90;;;;;;5011272;28;20541;-80
2021/12/03 04:44:19;;;;;;;32.85;18.45;;;-0.40;99.90;;;;;;4995949;28;20077;-80
2021/12/03 04:46:45;;;;;;;31.17;18.13;;;-0.40;99.90;;;;;;4992593;28;20056;-79
2021/12/03 04:49:10;;;;;;;36.90;18.05;;;-0.40;99.90;;;;;;4982919;28;20365;-79
2021/12/03 04:51:36;;;;;;;36.25;18.90;;;-0.40;99.90;;;;;;4998255;28;20045;-79
2021/12/03 04:54:02;;;;;;;;;;;-0.40;99.90;;;;;;4995713;28;20487;-79
2021/12/03 04:56:28;;;;;;;30.38;17.83;;;-0.40;99.90;;;;;;4995187;28;19971;-80
2021/12/03 04:58:54;;;;;;;38.47;19.05;;;-0.40;99.90;;;;;;5011385;28;20054;-80
2021/12/03 05:01:19;;;;;;;36.63;18.73;;;-0.40;99.90;;;;;;5009793;28;20046;-79
2021/12/03 05:03:45;;;;;;;37.08;19.48;;;0.70;99.90;;;;;;4992259;28;20061;-79
2021/12/03 05:06:15;;;;;;;41.05;20.42;;;0.30;99.90;;;;;;4992030;28;20088;-79
2021/12/03 05:08:41;;;;;;;42.47;20.92;;;-0.30;99.90;;;;;;4976529;28;20050;-79
2021/12/03 05:11:07;;;;;;;40.40;19.83;;;-0.30;99.90;;;;;;5008457;28;20046;-80
2021/12/03 05:13:35;;;;;;;42.47;21.13;;;-0.30;99.90;;;;;;4995433;28;20054;-80
2021/12/03 05:16:01;;;;;;;39.55;21.20;;;-0.30;99.90;;;;;;4992658;28;20064;-80
2021/12/03 05:18:28;;;;;;;;;;;0.10;99.90;;;;;;4995795;28;20054;-79
2021/12/03 05:20:55;;;;;;;43.78;22.35;;;-0.20;99.90;;;;;;4990904;28;20046;-79
2021/12/03 05:23:23;;;;;;;40.58;21.27;;;-0.20;99.90;;;;;;4991903;28;20050;-79
2021/12/03 05:25:49;;;;;;;40.75;20.98;;;0.40;99.90;;;;;;4990844;28;20046;-79
2021/12/03 05:28:16;;;;;;;41.20;20.60;;;-0.10;99.90;;;;;;5009001;28;20509;-80
2021/12/03 05:30:43;;;;;;;40.15;20.85;;;-0.10;99.90;;;;;;4990449;28;20367;-79
2021/12/03 05:33:09;;;;;;;38.63;20.40;;;-0.10;99.90;;;;;;4974292;28;20507;-79
2021/12/03 05:35:35;;;;;;;38.22;20.60;;;-0.10;99.90;;;;;;4991661;28;20061;-79
2021/12/03 05:38:01;;;;;;;;;;;0.00;99.90;;;;;;4959297;28;20081;-79
2021/12/03 05:40:27;;;;;;;39.50;21.50;;;0.00;99.90;;;;;;4975038;28;19969;-79
2021/12/03 05:42:53;;;;;;;;;;;0.00;99.90;;;;;;4991548;28;20133;-79
2021/12/03 05:45:25;;;;;;;44.30;21.50;;;-0.30;99.90;;;;;;4998353;28;20565;-80
2021/12/03 05:47:52;;;;;;;42.75;21.00;;;0.60;99.90;;;;;;4991486;28;20058;-79
2021/12/03 05:50:18;;;;;;;39.35;21.17;;;0.10;99.90;;;;;;4990842;28;20046;-80
2021/12/03 05:52:45;;;;;;;47.17;21.60;;;0.10;99.90;;;;;;4975194;28;20058;-79
2021/12/03 05:55:11;;;;;;;44.33;22.20;;;0.10;99.90;;;;;;4990436;28;20038;-79
2021/12/03 05:57:37;;;;;;;;;;;0.10;99.90;;;;;;4959289;28;20050;-79
2021/12/03 06:00:07;;;;;;;43.72;21.48;;;0.10;99.90;;;;;;4999144;28;19925;-80
2021/12/03 06:02:33;;;;;;;39.50;21.17;;;0.10;99.90;;;;;;5009920;28;20380;-79
2021/12/03 06:04:59;;;;;;;38.67;21.33;;;0.10;99.90;;;;;;4977586;28;20060;-80
2021/12/03 06:07:25;;;;;;;38.20;19.00;;;0.10;99.90;;;;;;4985444;28;20058;-80
2021/12/03 06:09:51;;;;;;;38.22;19.00;;;0.10;99.90;;;;;;4993848;28;20149;-80
2021/12/03 06:12:16;;;;;;;40.88;20.52;;;0.10;99.90;;;;;;4993501;28;20077;-81
2021/12/03 06:14:43;;;;;;;40.47;19.67;;;0.10;99.90;;;;;;4994228;28;20394;-80
2021/12/03 06:17:12;;;;;;;42.17;20.15;;;1.00;99.90;;;;;;4974250;28;20045;-81
2021/12/03 06:19:42;;;;;;;39.00;20.50;;;0.10;99.90;;;;;;4974704;28;20053;-80
2021/12/03 06:22:08;;;;;;;45.25;21.20;;;0.10;99.90;;;;;;4990009;28;20086;-81
2021/12/03 06:24:35;;;;;;;41.72;20.38;;;0.10;99.90;;;;;;4974615;28;20130;-80
2021/12/03 06:27:01;;;;;;;41.88;21.27;;;0.10;99.90;;;;;;4973579;28;20061;-80
2021/12/03 06:29:27;;;;;;;49.17;20.70;;;0.60;99.90;;;;;;4985421;28;20446;-80
2021/12/03 06:31:52;;;;;;;38.65;20.08;;;0.10;99.90;;;;;;5008444;28;20093;-80
2021/12/03 06:34:18;;;;;;;42.55;21.02;;;0.10;99.90;;;;;;4973935;28;20072;-80
2021/12/03 06:36:44;;;;;;;48.50;21.40;;;0.10;99.90;;;;;;4974351;28;20208;-80
2021/12/03 06:39:10;;;;;;;42.90;20.80;;;0.10;99.90;;;;;;4988779;28;20038;-80
2021/12/03 06:41:35;;;;;;;46.05;21.65;;;0.10;99.90;;;;;;5009333;28;20081;-80
2021/12/03 06:44:02;;;;;;;50.30;23.52;;;0.50;99.90;;;;;;4977197;28;20041;-80
2021/12/03 06:46:30;;;;;;;49.65;22.00;;;0.20;99.90;;;;;;5007902;28;20042;-80
2021/12/03 06:48:58;;;;;;;48.22;21.27;;;0.70;99.90;;;;;;5009036;28;20128;-80
2021/12/03 06:51:24;;;;;;;47.38;21.85;;;0.20;99.90;;;;;;4993533;28;20087;-80
2021/12/03 06:53:59;;;;;;;;;;;0.50;99.90;;;;;;4974656;28;20065;-80
2021/12/03 06:56:32;;;;;;;40.92;18.52;;;0.20;99.90;;;;;;4989679;28;19926;-80
2021/12/03 06:58:58;;;;;;;57.72;21.73;;;1.10;99.90;;;;;;5005826;28;20392;-81
2021/12/03 07:01:23;;;;;;;53.20;22.25;;;0.20;99.90;;;;;;5006240;28;20101;-80
2021/12/03 07:03:49;;;;;;;50.35;22.00;;;0.30;99.90;;;;;;4973502;28;20046;-80
2021/12/03 07:06:15;;;;;;;49.28;21.27;;;0.30;99.90;;;;;;4992706;28;20049;-80
2021/12/03 07:08:41;;;;;;;45.55;21.58;;;0.30;99.90;;;;;;4998803;28;20066;-81
2021/12/03 07:11:06;;;;;;;50.53;22.00;;;0.40;99.90;;;;;;4996650;28;20530;-80
2021/12/03 07:13:32;;;;;;;48.45;20.67;;;0.40;99.90;;;;;;4965162;28;20045;-80
2021/12/03 07:15:59;;;;;;;49.92;22.23;;;0.40;99.90;;;;;;4995271;28;20046;-80
2021/12/03 07:18:25;;;;;;;49.60;21.20;;;1.00;99.90;;;;;;4994851;28;20670;-80
2021/12/03 07:20:51;;;;;;;43.80;20.23;;;0.80;99.90;;;;;;5013573;28;20056;-80
2021/12/03 07:23:17;;;;;;;44.63;20.77;;;1.10;99.90;;;;;;5012561;28;20054;-80
2021/12/03 07:25:43;;;;;;;53.72;23.10;;;1.30;99.90;;;;;;5013406;28;20144;-80
2021/12/03 07:28:09;;;;;;;50.65;20.38;;;0.60;99.90;;;;;;5011105;28;20132;-81
2021/12/03 07:30:35;;;;;;;47.80;20.60;;;0.60;99.90;;;;;;5012611;28;20537;-80
2021/12/03 07:33:01;;;;;;;44.40;21.83;;;0.70;99.90;;;;;;5008938;28;20093;-81
2021/12/03 07:35:27;;;;;;;45.08;20.55;;;0.70;99.90;;;;;;5012735;28;20413;-81
2021/12/03 07:37:53;;;;;;;46.83;20.75;;;1.20;99.90;;;;;;4997054;28;20056;-81
2021/12/03 07:40:19;;;;;;;49.53;21.33;;;0.80;99.90;;;;;;4979606;28;20056;-81
2021/12/03 07:42:45;;;;;;;52.28;21.25;;;0.70;99.90;;;;;;4996731;28;20049;-81
2021/12/03 07:45:14;;;;;;;49.75;22.42;;;1.10;99.90;;;;;;4994904;28;20116;-81
2021/12/03 07:47:40;;;;;;;45.25;22.33;;;0.80;99.90;;;;;;5007875;28;20061;-82
2021/12/03 07:50:08;;;;;;;52.13;21.75;;;0.80;99.90;;;;;;4997415;28;20054;-82
2021/12/03 07:52:34;;;;;;;51.35;22.15;;;0.80;99.90;;;;;;4980609;28;20045;-81
2021/12/03 07:55:00;;;;;;;52.30;20.80;;;0.80;99.90;;;;;;4981877;28;20148;-82
2021/12/03 07:57:26;;;;;;;55.58;22.83;;;0.90;99.90;;;;;;4992979;28;20054;-81
2021/12/03 07:59:52;;;;;;;52.88;22.40;;;0.90;99.90;;;;;;4992955;28;20046;-82
2021/12/03 08:02:17;;;;;;;53.78;22.73;;;0.90;99.90;;;;;;4959086;28;20053;-81
2021/12/03 08:04:43;;;;;;;49.85;21.73;;;1.50;99.90;;;;;;5004358;28;20049;-81
2021/12/03 08:07:09;;;;;;;54.80;24.05;;;0.90;99.90;;;;;;4992038;28;20054;-82
2021/12/03 08:09:36;;;;;;;53.58;22.88;;;1.70;99.90;;;;;;4977230;28;20113;-82
2021/12/03 08:12:02;;;;;;;56.08;24.42;;;0.50;99.90;;;;;;4992666;28;20060;-81
2021/12/03 08:14:27;;;;;;;64.00;25.33;;;1.00;99.90;;;;;;4985179;28;20050;-81
2021/12/03 08:16:53;;;;;;;57.90;24.20;;;1.00;99.90;;;;;;4976960;28;20050;-82
2021/12/03 08:19:19;;;;;;;67.95;26.05;;;1.10;99.90;;;;;;4992540;28;20088;-82
2021/12/03 08:21:44;;;;;;;72.30;24.88;;;1.60;99.90;;;;;;4975761;28;20050;-82
2021/12/03 08:24:10;;;;;;;80.47;26.67;;;1.40;99.90;;;;;;4960049;28;20081;-82
2021/12/03 08:26:37;;;;;;;64.95;24.48;;;1.10;99.90;;;;;;4976362;28;20046;-82
2021/12/03 08:29:04;;;;;;;75.05;25.13;;;1.10;99.90;;;;;;4976822;28;20081;-82
2021/12/03 08:31:30;;;;;;;80.97;26.30;;;1.10;99.90;;;;;;4964014;28;20049;-82
2021/12/03 08:33:56;;;;;;;81.38;28.15;;;1.60;99.90;;;;;;4980213;28;20511;-83
2021/12/03 08:36:22;;;;;;;74.47;25.92;;;1.40;99.90;;;;;;4993349;28;20056;-83
2021/12/03 08:38:48;;;;;;;79.78;27.77;;;2.00;99.90;;;;;;4995473;28;20042;-83
2021/12/03 08:41:18;;;;;;;78.00;26.92;;;1.20;99.90;;;;;;4997515;28;20063;-82
2021/12/03 08:43:49;;;;;;;79.70;26.38;;;1.60;99.90;;;;;;4992683;28;20042;-82
2021/12/03 08:48:51;;;;;;;76.72;26.90;;;1.20;99.90;;;;;;4977708;28;20112;-82
2021/12/03 08:56:31;;;;;;;80.38;26.90;;;1.40;99.90;;;;;;4992593;28;20050;-82
2021/12/03 08:58:58;;;;;;;91.68;30.52;;;1.40;99.90;;;;;;4981848;28;20503;-83
2021/12/03 09:01:24;;;;;;;85.32;27.48;;;1.50;99.90;;;;;;4982462;28;20049;-82
2021/12/03 09:03:49;;;;;;;80.95;26.25;;;2.30;99.90;;;;;;5000537;28;20080;-82
2021/12/03 09:06:15;;;;;;;79.32;26.73;;;1.60;99.90;;;;;;4983656;28;20085;-81
2021/12/03 09:08:41;;;;;;;76.60;28.00;;;1.50;99.90;;;;;;4972321;28;20088;-82
2021/12/03 09:11:06;;;;;;;97.25;27.90;;;1.60;99.90;;;;;;4982034;28;20057;-82
2021/12/03 09:13:33;;;;;;;72.20;26.27;;;1.60;99.90;;;;;;4974913;28;20085;-82
2021/12/03 09:16:01;;;;;;;;;;;1.70;99.90;;;;;;4989209;28;20511;-83
2021/12/03 09:26:03;;;;;;;61.72;22.60;;;2.60;99.90;;;;;;5009455;28;20345;-82
2021/12/03 09:28:28;;;;;;;63.65;22.75;;;1.80;99.90;;;;;;4981032;28;20109;-82
2021/12/03 09:30:54;;;;;;;69.60;25.23;;;1.90;99.90;;;;;;5008246;28;20058;-82
2021/12/03 09:33:23;;;;;;;68.20;23.08;;;1.80;99.90;;;;;;4997434;28;20053;-82
2021/12/03 09:35:53;;;;;;;66.10;23.77;;;1.90;99.90;;;;;;5007577;28;20053;-82
2021/12/03 09:38:19;;;;;;;65.55;24.25;;;2.00;99.90;;;;;;4993287;28;20050;-82
2021/12/03 09:40:46;;;;;;;61.25;22.45;;;2.30;99.90;;;;;;5009345;28;20104;-82
2021/12/03 09:43:12;;;;;;;65.88;24.40;;;2.40;99.90;;;;;;4992344;28;20052;-82
2021/12/03 09:45:40;;;;;;;;;;;1.90;99.90;;;;;;4992717;28;20068;-82
2021/12/03 09:48:28;;;;;;;66.72;21.35;;;1.90;99.90;;;;;;4989911;28;19921;-83
2021/12/03 09:50:52;;;;;;;62.67;22.25;;;2.00;99.90;;;;;;4990693;28;20819;-82
2021/12/03 09:53:52;;;;;;;59.80;21.48;;;2.00;99.90;;;;;;4990503;28;20050;-82
2021/12/03 09:56:13;;;;;;;54.75;19.80;;;2.00;99.90;;;;;;4988085;28;20671;-82
2021/12/03 10:01:20;;;;;;;49.17;19.80;;;2.10;99.90;;;;;;4997333;28;20403;-83
2021/12/03 10:15:29;;;;;;;42.65;16.85;;;2.30;99.90;;;;;;4994066;28;20081;-83
2021/12/03 10:47:06;;;;;;;29.77;9.70;;;2.40;99.90;;;;;;4991099;28;20049;-83
2021/12/03 10:50:02;;;;;;;27.60;8.82;;;2.40;99.90;;;;;;5009704;28;20050;-82
2021/12/03 10:53:12;;;;;;;23.33;8.55;;;2.40;99.90;;;;;;4991724;28;20479;-82
2021/12/03 11:06:51;;;;;;;16.63;6.78;;;3.10;99.90;;;;;;5009676;28;20053;-81
2021/12/03 11:15:59;;;;;;;19.98;5.97;;;2.60;99.90;;;;;;5008550;28;20053;-82
2021/12/03 11:18:34;;;;;;;20.77;6.05;;;2.60;99.90;;;;;;5005257;28;20061;-82
2021/12/03 11:33:34;;;;;;;15.60;5.43;;;3.30;99.90;;;;;;5007176;28;20053;-82
2021/12/03 11:57:35;;;;;;;16.83;5.10;;;2.50;99.90;;;;;;5008807;28;20050;-82
2021/12/03 12:00:06;;;;;;;15.02;4.65;;;2.50;99.90;;;;;;5012107;28;20050;-83
2021/12/03 12:23:09;;;;;;;16.27;6.00;;;2.00;99.90;;;;;;4995359;28;20112;-88
2021/12/03 12:34:31;;;;;;;16.25;7.07;;;2.10;99.90;;;;;;5012179;28;20526;-87
2021/12/03 12:42:18;;;;;;;22.40;8.18;;;2.00;99.90;;;;;;5008357;28;20080;-87
2021/12/03 12:57:14;;;;;;;13.65;7.10;;;2.60;99.90;;;;;;5000766;28;20089;-83
2021/12/03 13:21:16;;;;;;;24.00;8.82;;;2.50;99.90;;;;;;4998062;28;20753;-85
2021/12/03 13:59:53;;;;;;;20.75;7.10;;;2.80;99.90;;;;;;5010626;28;20132;-86
2021/12/03 14:29:04;;;;;;;14.98;5.32;;;3.10;99.90;;;;;;5000991;28;20108;-87
2021/12/03 14:43:09;;;;;;;14.43;6.07;;;3.20;99.90;;;;;;4969200;28;20049;-89
2021/12/03 14:46:05;;;;;;;21.67;6.28;;;3.10;99.90;;;;;;4988862;28;20143;-85
2021/12/03 14:51:10;;;;;;;12.85;5.55;;;3.30;99.90;;;;;;5001779;28;20050;-87
2021/12/03 14:56:08;;;;;;;15.63;5.50;;;3.20;99.90;;;;;;4989628;28;20053;-88
2021/12/03 15:01:25;;;;;;;14.70;5.63;;;3.30;99.90;;;;;;4988829;28;20058;-89
2021/12/03 15:07:10;;;;;;;14.85;5.35;;;3.30;99.90;;;;;;4972939;28;20059;-88
2021/12/03 15:09:39;;;;;;;10.88;4.95;;;3.40;99.90;;;;;;4963825;28;20065;-91
2021/12/03 15:30:28;;;;;;;9.30;5.00;;;4.00;99.90;;;;;;4976139;28;20761;-86
2021/12/03 16:04:34;;;;;;;10.50;4.40;;;3.60;99.90;;;;;;4994197;28;20144;-85
2021/12/03 16:12:22;;;;;;;10.95;4.70;;;3.60;99.90;;;;;;4997924;28;20172;-86
2021/12/03 16:46:47;;;;;;;12.05;6.30;;;3.60;99.90;;;;;;4995209;28;20050;-86
2021/12/03 16:51:57;;;;;;;13.43;7.18;;;3.60;99.90;;;;;;4986533;28;20480;-86
2021/12/03 16:54:42;;;;;;;;;;;3.60;99.90;;;;;;4960936;28;20046;-85
2021/12/03 16:57:10;;;;;;;12.63;6.88;;;3.60;99.90;;;;;;4975288;28;19976;-84
2021/12/03 16:59:38;;;;;;;15.20;6.82;;;3.60;99.90;;;;;;4992240;28;20046;-85
2021/12/03 17:02:07;;;;;;;13.45;7.95;;;3.60;99.90;;;;;;4991433;28;20108;-86
2021/12/03 17:10:29;;;;;;;14.05;7.82;;;3.50;99.90;;;;;;5007276;28;20069;-86
2021/12/03 17:13:09;;;;;;;14.05;8.10;;;4.10;99.90;;;;;;4975210;28;20132;-86
2021/12/03 17:16:19;;;;;;;14.27;8.50;;;3.60;99.90;;;;;;4999051;28;20061;-86
2021/12/03 17:29:35;;;;;;;12.38;7.47;;;3.60;99.90;;;;;;4994862;28;20077;-86
2021/12/03 17:44:34;;;;;;;15.82;8.88;;;3.70;99.90;;;;;;4980218;28;20046;-87
2021/12/03 17:53:46;;;;;;;15.57;9.27;;;3.70;99.90;;;;;;4991423;28;20050;-86
2021/12/03 17:56:17;;;;;;;19.23;10.10;;;4.00;99.90;;;;;;4987731;28;20060;-86
2021/12/03 17:58:49;;;;;;;24.55;11.70;;;3.80;99.90;;;;;;4995152;28;20085;-82
2021/12/03 18:01:18;;;;;;;19.90;10.32;;;3.70;99.90;;;;;;5008655;28;20468;-86
2021/12/03 18:17:06;;;;;;;23.27;12.85;;;3.70;99.90;;;;;;5000669;28;20097;-86
2021/12/03 18:51:36;;;;;;;29.05;15.45;;;3.70;99.90;;;;;;5001029;28;20053;-86
2021/12/03 18:59:09;;;;;;;27.95;13.32;;;3.70;99.90;;;;;;4998189;28;20054;-86
2021/12/03 19:01:36;;;;;;;27.13;14.57;;;3.70;99.90;;;;;;4959137;28;20034;-86
2021/12/03 19:09:09;;;;;;;31.67;16.13;;;3.70;99.90;;;;;;5001031;28;20108;-86
2021/12/03 19:11:39;;;;;;;28.38;13.77;;;4.10;99.90;;;;;;4985521;28;20050;-87
2021/12/03 19:14:07;;;;;;;30.55;14.68;;;3.80;99.90;;;;;;4985192;28;20137;-87
2021/12/03 19:16:33;;;;;;;26.33;14.70;;;3.80;99.90;;;;;;4997912;28;20065;-87
2021/12/03 19:19:01;;;;;;;27.05;13.43;;;3.90;99.90;;;;;;4999777;28;20121;-87
2021/12/03 19:21:28;;;;;;;23.42;12.65;;;3.80;99.90;;;;;;4998706;28;20046;-87
2021/12/03 19:23:58;;;;;;;26.88;14.60;;;4.20;99.90;;;;;;4979215;28;20492;-87
2021/12/03 19:26:30;;;;;;;28.67;13.98;;;3.90;99.90;;;;;;5000423;28;20124;-87
2021/12/03 19:28:58;;;;;;;25.67;13.52;;;3.90;99.90;;;;;;5008193;28;20506;-86
2021/12/03 19:31:24;;;;;;;27.73;14.05;;;4.10;99.90;;;;;;4995516;28;20049;-88
2021/12/03 19:33:50;;;;;;;;;;;3.90;99.90;;;;;;4988894;28;20047;-86
2021/12/03 19:36:21;;;;;;;27.02;13.85;;;3.90;99.90;;;;;;4999306;28;20468;-86
2021/12/03 19:38:48;;;;;;;26.00;13.63;;;3.90;99.90;;;;;;5005768;28;20041;-86
2021/12/03 19:41:19;;;;;;;26.40;14.00;;;4.10;99.90;;;;;;4998005;28;21030;-85
2021/12/03 19:43:49;;;;;;;30.17;15.20;;;4.00;99.90;;;;;;4982704;28;20117;-85
2021/12/03 19:46:27;;;;;;;32.25;14.48;;;3.90;99.90;;;;;;4983070;28;20054;-85
2021/12/03 19:51:24;;;;;;;29.95;15.07;;;3.90;99.90;;;;;;5002147;28;20080;-86
2021/12/03 19:53:57;;;;;;;31.35;14.40;;;4.40;99.90;;;;;;4997675;28;20439;-86
2021/12/03 19:56:25;;;;;;;29.88;15.07;;;3.90;99.90;;;;;;5003637;28;20121;-87
2021/12/03 19:58:52;;;;;;;36.40;16.60;;;3.90;99.90;;;;;;5004052;28;20046;-86
2021/12/03 20:01:19;;;;;;;32.75;15.85;;;3.90;99.90;;;;;;4987522;28;20046;-86
2021/12/03 20:03:45;;;;;;;33.90;16.02;;;3.90;99.90;;;;;;4999687;28;20041;-86
2021/12/03 20:06:11;;;;;;;31.10;15.18;;;3.80;99.90;;;;;;4998577;28;20116;-85
2021/12/03 20:08:37;;;;;;;28.80;14.43;;;3.80;99.90;;;;;;4997094;28;20038;-86
2021/12/03 20:11:09;;;;;;;35.22;15.30;;;3.90;99.90;;;;;;4995247;28;20412;-86